DAL2531 KDCA-KCLT
Flight info
| Callsign | DAL2531 |
|---|---|
| Flight time | 0h 53m |
| Altitude | 34000 |
| Route | SCRAM6 GLANC AIROW CHSLY6 |
| Aircraft | B739/M-SDE2E3FGHIRWXY/LB1 |
Departure
| Time | 2026-04-25 00:57 |
|---|---|
| Airport | Ronald Reagan Washington National Airport (KDCA) |
Arrival
| Time | 2026-04-25 01:51 |
|---|---|
| Airport | Charlotte Douglas International Airport (KCLT) |
| Time | Latitude | Longitude | Altitude | Speed | Heading |
|---|---|---|---|---|---|
| 2026-04-25 00:33 | 38.85359 | -77.04151 | 25 ft | 0 kts | 348° |
| 2026-04-25 00:45 | 38.85357 | -77.04151 | 27 ft | 2 kts | 348° |
| 2026-04-25 00:45 | 38.85332 | -77.04144 | 26 ft | 3 kts | 348° |
| 2026-04-25 00:46 | 38.85314 | -77.04142 | 27 ft | 4 kts | 35° |
| 2026-04-25 00:46 | 38.85303 | -77.04159 | 25 ft | 1 kts | 72° |
| 2026-04-25 00:46 | 38.85319 | -77.04097 | 25 ft | 4 kts | 72° |
| 2026-04-25 00:47 | 38.85324 | -77.04077 | 23 ft | 0 kts | 72° |
| 2026-04-25 00:49 | 38.85327 | -77.04064 | 24 ft | 3 kts | 72° |
| 2026-04-25 00:50 | 38.85334 | -77.04030 | 23 ft | 5 kts | 77° |
| 2026-04-25 00:50 | 38.85349 | -77.03957 | 24 ft | 10 kts | 52° |
| 2026-04-25 00:50 | 38.85414 | -77.03942 | 25 ft | 10 kts | 356° |
| 2026-04-25 00:50 | 38.85497 | -77.03951 | 25 ft | 14 kts | 355° |
| 2026-04-25 00:51 | 38.85594 | -77.03961 | 24 ft | 14 kts | 355° |
| 2026-04-25 00:51 | 38.85690 | -77.03970 | 26 ft | 15 kts | 356° |
| 2026-04-25 00:51 | 38.85816 | -77.03984 | 26 ft | 19 kts | 354° |
| 2026-04-25 00:51 | 38.85943 | -77.03978 | 23 ft | 14 kts | 15° |
| 2026-04-25 00:52 | 38.86001 | -77.03958 | 26 ft | 0 kts | 15° |
| 2026-04-25 00:56 | 38.86014 | -77.03953 | 24 ft | 7 kts | 15° |
| 2026-04-25 00:56 | 38.86069 | -77.03911 | 23 ft | 11 kts | 70° |
| 2026-04-25 00:56 | 38.86015 | -77.03863 | 23 ft | 13 kts | 175° |
| 2026-04-25 00:56 | 38.85734 | -77.03835 | 25 ft | 76 kts | 175° |
| 2026-04-25 00:57 | 38.84985 | -77.03759 | 23 ft | 137 kts | 175° |
| 2026-04-25 00:57 | 38.83880 | -77.03655 | 134 ft | 175 kts | 175° |
| 2026-04-25 00:57 | 38.82611 | -77.03583 | 587 ft | 191 kts | 178° |
| 2026-04-25 00:57 | 38.81262 | -77.03520 | 1196 ft | 200 kts | 181° |
| 2026-04-25 00:58 | 38.79808 | -77.03484 | 1706 ft | 213 kts | 182° |
| 2026-04-25 00:58 | 38.78348 | -77.03482 | 2545 ft | 208 kts | 184° |
| 2026-04-25 00:58 | 38.76843 | -77.03519 | 2875 ft | 227 kts | 189° |
| 2026-04-25 00:58 | 38.75385 | -77.04359 | 3067 ft | 239 kts | 231° |
| 2026-04-25 00:59 | 38.74643 | -77.06285 | 3229 ft | 251 kts | 267° |
| 2026-04-25 00:59 | 38.74580 | -77.08532 | 3866 ft | 255 kts | 272° |
| 2026-04-25 00:59 | 38.74502 | -77.10834 | 4586 ft | 263 kts | 270° |
| 2026-04-25 00:59 | 38.74339 | -77.13166 | 5393 ft | 265 kts | 260° |
| 2026-04-25 01:00 | 38.73580 | -77.15335 | 6199 ft | 272 kts | 242° |
| 2026-04-25 01:00 | 38.72499 | -77.17363 | 6884 ft | 277 kts | 239° |
| 2026-04-25 01:00 | 38.71364 | -77.19360 | 7667 ft | 278 kts | 238° |
| 2026-04-25 01:00 | 38.70219 | -77.21355 | 8424 ft | 279 kts | 238° |
| 2026-04-25 01:01 | 38.69067 | -77.23372 | 9195 ft | 281 kts | 237° |
| 2026-04-25 01:01 | 38.67920 | -77.25384 | 10009 ft | 280 kts | 237° |
| 2026-04-25 01:01 | 38.66755 | -77.27442 | 10434 ft | 295 kts | 237° |
| 2026-04-25 01:01 | 38.65528 | -77.29626 | 10578 ft | 317 kts | 237° |
| 2026-04-25 01:02 | 38.64191 | -77.32002 | 10941 ft | 330 kts | 237° |
| 2026-04-25 01:02 | 38.62840 | -77.34399 | 11527 ft | 335 kts | 237° |
| 2026-04-25 01:02 | 38.61488 | -77.36798 | 12174 ft | 338 kts | 237° |
| 2026-04-25 01:02 | 38.60110 | -77.39239 | 12904 ft | 340 kts | 237° |
| 2026-04-25 01:03 | 38.58719 | -77.41707 | 13591 ft | 344 kts | 237° |
| 2026-04-25 01:03 | 38.57313 | -77.44201 | 14210 ft | 348 kts | 237° |
| 2026-04-25 01:03 | 38.55893 | -77.46720 | 14848 ft | 351 kts | 237° |
| 2026-04-25 01:03 | 38.54459 | -77.49261 | 15511 ft | 354 kts | 237° |
| 2026-04-25 01:04 | 38.53016 | -77.51817 | 16181 ft | 356 kts | 237° |
| 2026-04-25 01:04 | 38.51558 | -77.54399 | 16805 ft | 361 kts | 237° |
| 2026-04-25 01:04 | 38.50083 | -77.57007 | 17434 ft | 364 kts | 237° |
| 2026-04-25 01:04 | 38.48594 | -77.59640 | 18065 ft | 368 kts | 237° |
| 2026-04-25 01:05 | 38.47087 | -77.62300 | 18622 ft | 371 kts | 237° |
| 2026-04-25 01:05 | 38.45570 | -77.64977 | 19156 ft | 374 kts | 237° |
| 2026-04-25 01:05 | 38.44037 | -77.67679 | 19694 ft | 377 kts | 238° |
| 2026-04-25 01:05 | 38.42491 | -77.70403 | 20198 ft | 381 kts | 238° |
| 2026-04-25 01:06 | 38.40931 | -77.73151 | 20732 ft | 384 kts | 238° |
| 2026-04-25 01:06 | 38.39349 | -77.75935 | 21142 ft | 390 kts | 238° |
| 2026-04-25 01:06 | 38.37753 | -77.78737 | 21713 ft | 391 kts | 238° |
| 2026-04-25 01:06 | 38.36110 | -77.81510 | 22262 ft | 394 kts | 236° |
| 2026-04-25 01:07 | 38.34367 | -77.84236 | 22750 ft | 399 kts | 234° |
| 2026-04-25 01:07 | 38.32576 | -77.86957 | 23208 ft | 403 kts | 234° |
| 2026-04-25 01:07 | 38.30759 | -77.89700 | 23635 ft | 407 kts | 234° |
| 2026-04-25 01:07 | 38.28931 | -77.92467 | 24067 ft | 409 kts | 234° |
| 2026-04-25 01:08 | 38.27100 | -77.95250 | 24501 ft | 411 kts | 234° |
| 2026-04-25 01:08 | 38.25285 | -77.98015 | 24917 ft | 413 kts | 234° |
| 2026-04-25 01:08 | 38.23443 | -78.00830 | 25340 ft | 416 kts | 234° |
| 2026-04-25 01:08 | 38.21591 | -78.03660 | 25811 ft | 416 kts | 234° |
| 2026-04-25 01:09 | 38.19744 | -78.06481 | 26377 ft | 414 kts | 234° |
| 2026-04-25 01:09 | 38.17902 | -78.09292 | 26947 ft | 413 kts | 234° |
| 2026-04-25 01:09 | 38.16067 | -78.12091 | 27460 ft | 413 kts | 234° |
| 2026-04-25 01:09 | 38.14229 | -78.14893 | 27969 ft | 412 kts | 234° |
| 2026-04-25 01:10 | 38.12396 | -78.17686 | 28507 ft | 412 kts | 234° |
| 2026-04-25 01:10 | 38.10564 | -78.20474 | 29059 ft | 411 kts | 234° |
| 2026-04-25 01:10 | 38.08733 | -78.23256 | 29573 ft | 410 kts | 234° |
| 2026-04-25 01:10 | 38.06902 | -78.26042 | 29897 ft | 413 kts | 234° |
| 2026-04-25 01:11 | 38.05082 | -78.28854 | 29859 ft | 410 kts | 235° |
| 2026-04-25 01:11 | 38.01524 | -78.34411 | 29902 ft | 404 kts | 235° |
| 2026-04-25 01:12 | 37.97979 | -78.39952 | 29911 ft | 406 kts | 235° |
| 2026-04-25 01:12 | 37.94409 | -78.45509 | 29886 ft | 407 kts | 235° |
| 2026-04-25 01:13 | 37.90821 | -78.51076 | 29890 ft | 408 kts | 235° |
| 2026-04-25 01:13 | 37.87227 | -78.56642 | 29888 ft | 409 kts | 235° |
| 2026-04-25 01:14 | 37.83661 | -78.62156 | 29888 ft | 408 kts | 234° |
| 2026-04-25 01:14 | 37.80031 | -78.67759 | 29895 ft | 408 kts | 234° |
| 2026-04-25 01:15 | 37.76438 | -78.73299 | 29886 ft | 407 kts | 234° |
| 2026-04-25 01:15 | 37.72834 | -78.78810 | 29897 ft | 407 kts | 232° |
| 2026-04-25 01:15 | 37.70780 | -78.81286 | 29891 ft | 412 kts | 221° |
| 2026-04-25 01:16 | 37.68476 | -78.83456 | 29901 ft | 413 kts | 220° |
| 2026-04-25 01:16 | 37.63820 | -78.87703 | 29897 ft | 412 kts | 220° |
| 2026-04-25 01:17 | 37.59192 | -78.91966 | 29902 ft | 411 kts | 221° |
| 2026-04-25 01:17 | 37.54594 | -78.96242 | 29919 ft | 410 kts | 221° |
| 2026-04-25 01:18 | 37.50041 | -79.00480 | 29925 ft | 409 kts | 221° |
| 2026-04-25 01:18 | 37.45468 | -79.04729 | 29938 ft | 408 kts | 221° |
| 2026-04-25 01:19 | 37.40862 | -79.08900 | 29943 ft | 407 kts | 219° |
| 2026-04-25 01:19 | 37.36204 | -79.12948 | 29948 ft | 407 kts | 219° |
| 2026-04-25 01:20 | 37.31562 | -79.16995 | 29952 ft | 406 kts | 219° |
| 2026-04-25 01:20 | 37.26927 | -79.21050 | 29947 ft | 406 kts | 219° |
| 2026-04-25 01:21 | 37.22307 | -79.25123 | 29900 ft | 406 kts | 220° |
| 2026-04-25 01:21 | 37.17728 | -79.29262 | 29910 ft | 406 kts | 220° |
| 2026-04-25 01:22 | 37.13153 | -79.33395 | 29925 ft | 406 kts | 220° |
| 2026-04-25 01:22 | 37.08567 | -79.37521 | 29914 ft | 406 kts | 220° |
| 2026-04-25 01:23 | 37.03977 | -79.41640 | 29922 ft | 406 kts | 220° |
| 2026-04-25 01:23 | 36.99360 | -79.45711 | 29916 ft | 406 kts | 219° |
| 2026-04-25 01:24 | 36.94694 | -79.49627 | 29914 ft | 406 kts | 218° |
| 2026-04-25 01:24 | 36.90005 | -79.53558 | 29922 ft | 406 kts | 218° |
| 2026-04-25 01:25 | 36.85327 | -79.57498 | 29924 ft | 405 kts | 219° |
| 2026-04-25 01:25 | 36.80651 | -79.61434 | 29927 ft | 405 kts | 218° |
| 2026-04-25 01:26 | 36.75977 | -79.65356 | 29911 ft | 405 kts | 218° |
| 2026-04-25 01:26 | 36.71298 | -79.69270 | 29922 ft | 405 kts | 218° |
| 2026-04-25 01:27 | 36.66618 | -79.73184 | 29920 ft | 402 kts | 218° |
| 2026-04-25 01:27 | 36.64329 | -79.75091 | 29888 ft | 391 kts | 218° |
| 2026-04-25 01:27 | 36.62083 | -79.76964 | 29530 ft | 385 kts | 218° |
| 2026-04-25 01:28 | 36.57692 | -79.80628 | 28748 ft | 375 kts | 218° |
| 2026-04-25 01:28 | 36.55533 | -79.82429 | 28318 ft | 372 kts | 218° |
| 2026-04-25 01:28 | 36.53396 | -79.84211 | 27905 ft | 369 kts | 218° |
| 2026-04-25 01:28 | 36.51272 | -79.85978 | 27479 ft | 366 kts | 218° |
| 2026-04-25 01:29 | 36.49164 | -79.87730 | 27064 ft | 363 kts | 218° |
| 2026-04-25 01:29 | 36.47069 | -79.89468 | 26643 ft | 361 kts | 218° |
| 2026-04-25 01:29 | 36.44990 | -79.91194 | 26241 ft | 358 kts | 218° |
| 2026-04-25 01:29 | 36.42922 | -79.92909 | 25829 ft | 356 kts | 218° |
| 2026-04-25 01:30 | 36.40867 | -79.94613 | 25427 ft | 355 kts | 218° |
| 2026-04-25 01:30 | 36.38823 | -79.96309 | 25019 ft | 353 kts | 217° |
| 2026-04-25 01:30 | 36.36784 | -79.97998 | 24619 ft | 352 kts | 217° |
| 2026-04-25 01:30 | 36.34749 | -79.99681 | 24198 ft | 351 kts | 217° |
| 2026-04-25 01:31 | 36.32716 | -80.01363 | 23716 ft | 353 kts | 217° |
| 2026-04-25 01:31 | 36.30660 | -80.03061 | 23125 ft | 356 kts | 217° |
| 2026-04-25 01:31 | 36.28581 | -80.04777 | 22479 ft | 360 kts | 217° |
| 2026-04-25 01:31 | 36.26503 | -80.06488 | 22021 ft | 358 kts | 216° |
| 2026-04-25 01:32 | 36.24433 | -80.08192 | 21569 ft | 356 kts | 216° |
| 2026-04-25 01:32 | 36.22404 | -80.09861 | 21153 ft | 354 kts | 216° |
| 2026-04-25 01:32 | 36.20360 | -80.11543 | 20725 ft | 352 kts | 216° |
| 2026-04-25 01:32 | 36.18299 | -80.13238 | 20305 ft | 350 kts | 216° |
| 2026-04-25 01:33 | 36.16304 | -80.14878 | 19894 ft | 348 kts | 216° |
| 2026-04-25 01:33 | 36.14294 | -80.16529 | 19486 ft | 346 kts | 216° |
| 2026-04-25 01:33 | 36.12294 | -80.18172 | 19077 ft | 344 kts | 216° |
| 2026-04-25 01:33 | 36.10301 | -80.19807 | 18660 ft | 343 kts | 215° |
| 2026-04-25 01:34 | 36.08315 | -80.21437 | 18236 ft | 342 kts | 216° |
| 2026-04-25 01:34 | 36.06338 | -80.23058 | 17782 ft | 340 kts | 216° |
| 2026-04-25 01:34 | 36.04372 | -80.24669 | 17347 ft | 338 kts | 216° |
| 2026-04-25 01:34 | 36.02417 | -80.26268 | 16932 ft | 336 kts | 216° |
| 2026-04-25 01:35 | 36.00479 | -80.27855 | 16524 ft | 333 kts | 216° |
| 2026-04-25 01:35 | 35.98564 | -80.29420 | 16203 ft | 328 kts | 216° |
| 2026-04-25 01:35 | 35.96672 | -80.30966 | 15813 ft | 325 kts | 215° |
| 2026-04-25 01:35 | 35.94790 | -80.32503 | 15442 ft | 323 kts | 215° |
| 2026-04-25 01:36 | 35.92924 | -80.34027 | 15060 ft | 321 kts | 215° |
| 2026-04-25 01:36 | 35.91070 | -80.35541 | 14685 ft | 319 kts | 215° |
| 2026-04-25 01:36 | 35.89224 | -80.37046 | 14310 ft | 317 kts | 215° |
| 2026-04-25 01:36 | 35.87385 | -80.38545 | 13926 ft | 316 kts | 215° |
| 2026-04-25 01:37 | 35.85557 | -80.40033 | 13544 ft | 314 kts | 214° |
| 2026-04-25 01:37 | 35.83735 | -80.41512 | 13136 ft | 313 kts | 215° |
| 2026-04-25 01:37 | 35.81971 | -80.43058 | 12725 ft | 309 kts | 219° |
| 2026-04-25 01:37 | 35.80304 | -80.44689 | 12315 ft | 303 kts | 220° |
| 2026-04-25 01:38 | 35.78673 | -80.46295 | 11932 ft | 297 kts | 219° |
| 2026-04-25 01:38 | 35.77069 | -80.47860 | 11569 ft | 291 kts | 219° |
| 2026-04-25 01:38 | 35.75488 | -80.49389 | 11201 ft | 287 kts | 218° |
| 2026-04-25 01:38 | 35.73762 | -80.50569 | 10886 ft | 284 kts | 199° |
| 2026-04-25 01:39 | 35.71883 | -80.51261 | 10627 ft | 281 kts | 198° |
| 2026-04-25 01:39 | 35.70013 | -80.51951 | 10342 ft | 281 kts | 198° |
| 2026-04-25 01:39 | 35.68157 | -80.52648 | 10128 ft | 277 kts | 198° |
| 2026-04-25 01:39 | 35.66327 | -80.53343 | 10086 ft | 273 kts | 199° |
| 2026-04-25 01:40 | 35.64558 | -80.54019 | 10051 ft | 258 kts | 199° |
| 2026-04-25 01:40 | 35.62903 | -80.54654 | 10045 ft | 240 kts | 199° |
| 2026-04-25 01:40 | 35.61353 | -80.55250 | 10051 ft | 228 kts | 199° |
| 2026-04-25 01:40 | 35.59841 | -80.55830 | 10076 ft | 230 kts | 199° |
| 2026-04-25 01:41 | 35.58313 | -80.56517 | 10067 ft | 237 kts | 213° |
| 2026-04-25 01:41 | 35.57221 | -80.57983 | 10085 ft | 236 kts | 248° |
| 2026-04-25 01:41 | 35.56841 | -80.59924 | 9994 ft | 233 kts | 261° |
| 2026-04-25 01:41 | 35.56611 | -80.61883 | 9680 ft | 232 kts | 261° |
| 2026-04-25 01:42 | 35.56384 | -80.63862 | 9228 ft | 236 kts | 262° |
| 2026-04-25 01:42 | 35.56159 | -80.65857 | 8847 ft | 236 kts | 262° |
| 2026-04-25 01:42 | 35.55935 | -80.67849 | 8483 ft | 235 kts | 262° |
| 2026-04-25 01:42 | 35.55713 | -80.69834 | 8160 ft | 234 kts | 262° |
| 2026-04-25 01:43 | 35.55494 | -80.71800 | 7838 ft | 232 kts | 262° |
| 2026-04-25 01:43 | 35.55276 | -80.73766 | 7459 ft | 233 kts | 262° |
| 2026-04-25 01:43 | 35.55054 | -80.75739 | 7120 ft | 233 kts | 262° |
| 2026-04-25 01:43 | 35.54774 | -80.77693 | 6741 ft | 233 kts | 250° |
| 2026-04-25 01:44 | 35.54060 | -80.79487 | 6367 ft | 234 kts | 242° |
| 2026-04-25 01:44 | 35.53296 | -80.81244 | 6021 ft | 233 kts | 242° |
| 2026-04-25 01:44 | 35.52793 | -80.82403 | 5815 ft | 232 kts | 242° |
| 2026-04-25 01:44 | 35.52037 | -80.84146 | 5480 ft | 231 kts | 242° |
| 2026-04-25 01:45 | 35.51282 | -80.85878 | 5169 ft | 229 kts | 242° |
| 2026-04-25 01:45 | 35.50527 | -80.87607 | 5130 ft | 231 kts | 242° |
| 2026-04-25 01:45 | 35.49766 | -80.89348 | 5097 ft | 231 kts | 242° |
| 2026-04-25 01:45 | 35.48940 | -80.91025 | 5079 ft | 229 kts | 231° |
| 2026-04-25 01:46 | 35.47935 | -80.92522 | 5068 ft | 226 kts | 231° |
| 2026-04-25 01:46 | 35.46951 | -80.94010 | 5069 ft | 224 kts | 231° |
| 2026-04-25 01:46 | 35.45828 | -80.95317 | 5042 ft | 225 kts | 205° |
| 2026-04-25 01:46 | 35.44290 | -80.95601 | 4920 ft | 230 kts | 173° |
| 2026-04-25 01:47 | 35.42686 | -80.95357 | 4629 ft | 234 kts | 176° |
| 2026-04-25 01:47 | 35.41066 | -80.95219 | 4286 ft | 232 kts | 175° |
| 2026-04-25 01:47 | 35.39468 | -80.95085 | 4004 ft | 229 kts | 175° |
| 2026-04-25 01:47 | 35.37892 | -80.94952 | 3711 ft | 225 kts | 175° |
| 2026-04-25 01:48 | 35.36342 | -80.94818 | 3429 ft | 222 kts | 175° |
| 2026-04-25 01:48 | 35.34816 | -80.94685 | 3151 ft | 217 kts | 175° |
| 2026-04-25 01:48 | 35.33349 | -80.94559 | 2849 ft | 205 kts | 175° |
| 2026-04-25 01:48 | 35.31969 | -80.94439 | 2605 ft | 194 kts | 176° |
| 2026-04-25 01:49 | 35.30655 | -80.94327 | 2355 ft | 184 kts | 176° |
| 2026-04-25 01:49 | 35.29417 | -80.94220 | 2126 ft | 173 kts | 176° |
| 2026-04-25 01:49 | 35.28258 | -80.94119 | 1956 ft | 166 kts | 176° |
| 2026-04-25 01:49 | 35.27122 | -80.94021 | 1693 ft | 160 kts | 176° |
| 2026-04-25 01:50 | 35.26001 | -80.93923 | 1520 ft | 162 kts | 176° |
| 2026-04-25 01:50 | 35.24870 | -80.93826 | 1260 ft | 164 kts | 176° |
| 2026-04-25 01:50 | 35.23750 | -80.93726 | 1051 ft | 159 kts | 178° |
| 2026-04-25 01:50 | 35.22663 | -80.93630 | 812 ft | 155 kts | 178° |
| 2026-04-25 01:51 | 35.21636 | -80.93548 | 735 ft | 137 kts | 176° |
| 2026-04-25 01:51 | 35.20840 | -80.93483 | 734 ft | 90 kts | 176° |
| 2026-04-25 01:51 | 35.20490 | -80.93449 | 735 ft | 23 kts | 176° |
| 2026-04-25 01:51 | 35.20372 | -80.93503 | 734 ft | 18 kts | 255° |
| 2026-04-25 01:52 | 35.20434 | -80.93581 | 732 ft | 14 kts | 353° |
| 2026-04-25 01:52 | 35.20535 | -80.93586 | 732 ft | 15 kts | 356° |
| 2026-04-25 01:52 | 35.20634 | -80.93595 | 732 ft | 14 kts | 355° |
| 2026-04-25 01:52 | 35.20730 | -80.93602 | 732 ft | 14 kts | 356° |
| 2026-04-25 01:53 | 35.20835 | -80.93612 | 732 ft | 15 kts | 356° |
| 2026-04-25 01:53 | 35.20939 | -80.93620 | 732 ft | 16 kts | 355° |
| 2026-04-25 01:53 | 35.21052 | -80.93631 | 732 ft | 16 kts | 356° |
| 2026-04-25 01:53 | 35.21164 | -80.93640 | 732 ft | 16 kts | 356° |
| 2026-04-25 01:54 | 35.21284 | -80.93650 | 732 ft | 17 kts | 356° |
| 2026-04-25 01:54 | 35.21401 | -80.93659 | 732 ft | 17 kts | 355° |
| 2026-04-25 01:54 | 35.21514 | -80.93673 | 732 ft | 16 kts | 353° |
| 2026-04-25 01:54 | 35.21606 | -80.93737 | 730 ft | 15 kts | 311° |
| 2026-04-25 01:55 | 35.21674 | -80.93834 | 732 ft | 15 kts | 309° |
| 2026-04-25 01:55 | 35.21753 | -80.93934 | 730 ft | 18 kts | 308° |
| 2026-04-25 01:55 | 35.21720 | -80.94063 | 731 ft | 17 kts | 228° |
| 2026-04-25 01:55 | 35.21642 | -80.94169 | 731 ft | 17 kts | 237° |
| 2026-04-25 01:56 | 35.21634 | -80.94304 | 731 ft | 16 kts | 277° |
| 2026-04-25 01:56 | 35.21712 | -80.94369 | 731 ft | 15 kts | 16° |
| 2026-04-25 01:56 | 35.21764 | -80.94283 | 731 ft | 3 kts | 63° |